sensor_id;sensor_type;location;lat;lon;timestamp;temperature;humidity
40660;DHT22;26753;45.544;9.232;2023-11-22T00:02:56;11.20;99.90
40660;DHT22;26753;45.544;9.232;2023-11-22T00:05:21;9.20;99.90
40660;DHT22;26753;45.544;9.232;2023-11-22T00:07:47;10.50;99.90
40660;DHT22;26753;45.544;9.232;2023-11-22T00:17:32;11.90;99.90
40660;DHT22;26753;45.544;9.232;2023-11-22T00:24:53;11.50;99.90
40660;DHT22;26753;45.544;9.232;2023-11-22T00:29:45;9.90;99.90
40660;DHT22;26753;45.544;9.232;2023-11-22T00:41:55;10.40;99.90
40660;DHT22;26753;45.544;9.232;2023-11-22T00:44:21;10.10;99.90
40660;DHT22;26753;45.544;9.232;2023-11-22T00:49:15;11.30;99.90
40660;DHT22;26753;45.544;9.232;2023-11-22T00:54:07;8.70;99.90
40660;DHT22;26753;45.544;9.232;2023-11-22T01:01:28;8.20;99.90
40660;DHT22;26753;45.544;9.232;2023-11-22T01:03:54;9.80;99.90
40660;DHT22;26753;45.544;9.232;2023-11-22T01:21:00;10.10;99.90
40660;DHT22;26753;45.544;9.232;2023-11-22T01:40:31;9.80;99.90
40660;DHT22;26753;45.544;9.232;2023-11-22T01:50:17;9.70;99.90
40660;DHT22;26753;45.544;9.232;2023-11-22T01:52:42;10.30;99.90
40660;DHT22;26753;45.544;9.232;2023-11-22T01:55:09;10.10;99.90
40660;DHT22;26753;45.544;9.232;2023-11-22T01:57:36;10.30;99.90
40660;DHT22;26753;45.544;9.232;2023-11-22T02:00:03;11.40;99.90
40660;DHT22;26753;45.544;9.232;2023-11-22T02:02:36;10.10;99.90
40660;DHT22;26753;45.544;9.232;2023-11-22T02:05:02;10.10;99.90
40660;DHT22;26753;45.544;9.232;2023-11-22T02:12:20;8.10;99.90
40660;DHT22;26753;45.544;9.232;2023-11-22T02:14:46;9.00;99.90
40660;DHT22;26753;45.544;9.232;2023-11-22T02:19:38;9.20;99.90
40660;DHT22;26753;45.544;9.232;2023-11-22T02:22:04;10.50;99.90
40660;DHT22;26753;45.544;9.232;2023-11-22T02:24:29;11.20;99.90
40660;DHT22;26753;45.544;9.232;2023-11-22T02:26:55;9.40;99.90
40660;DHT22;26753;45.544;9.232;2023-11-22T02:31:48;10.10;99.90
40660;DHT22;26753;45.544;9.232;2023-11-22T02:34:13;9.40;99.90
40660;DHT22;26753;45.544;9.232;2023-11-22T02:36:44;9.00;99.90
40660;DHT22;26753;45.544;9.232;2023-11-22T02:39:09;8.40;99.90
40660;DHT22;26753;45.544;9.232;2023-11-22T02:41:35;9.90;99.90
40660;DHT22;26753;45.544;9.232;2023-11-22T02:44:01;9.60;99.90
40660;DHT22;26753;45.544;9.232;2023-11-22T02:46:27;9.50;99.90
40660;DHT22;26753;45.544;9.232;2023-11-22T02:51:21;10.30;99.90
40660;DHT22;26753;45.544;9.232;2023-11-22T02:53:48;11.30;99.90
40660;DHT22;26753;45.544;9.232;2023-11-22T02:56:15;10.10;99.90
40660;DHT22;26753;45.544;9.232;2023-11-22T03:01:07;8.30;99.90
40660;DHT22;26753;45.544;9.232;2023-11-22T03:03:33;12.20;99.90
40660;DHT22;26753;45.544;9.232;2023-11-22T03:10:52;11.80;99.90
40660;DHT22;26753;45.544;9.232;2023-11-22T03:15:44;8.70;99.90
40660;DHT22;26753;45.544;9.232;2023-11-22T03:20:39;11.10;99.90
40660;DHT22;26753;45.544;9.232;2023-11-22T03:23:07;9.50;99.90
40660;DHT22;26753;45.544;9.232;2023-11-22T03:25:37;9.50;99.90
40660;DHT22;26753;45.544;9.232;2023-11-22T03:30:29;10.60;99.90
40660;DHT22;26753;45.544;9.232;2023-11-22T03:37:47;7.90;99.90
40660;DHT22;26753;45.544;9.232;2023-11-22T03:42:39;11.30;99.90
40660;DHT22;26753;45.544;9.232;2023-11-22T03:47:32;7.20;99.90
40660;DHT22;26753;45.544;9.232;2023-11-22T03:50:04;10.10;99.90
40660;DHT22;26753;45.544;9.232;2023-11-22T03:52:31;10.00;99.90
40660;DHT22;26753;45.544;9.232;2023-11-22T03:57:23;8.60;99.90
40660;DHT22;26753;45.544;9.232;2023-11-22T03:59:49;9.20;99.90
40660;DHT22;26753;45.544;9.232;2023-11-22T04:09:34;7.80;99.90
40660;DHT22;26753;45.544;9.232;2023-11-22T04:14:26;7.40;99.90
40660;DHT22;26753;45.544;9.232;2023-11-22T04:16:53;10.80;99.90
40660;DHT22;26753;45.544;9.232;2023-11-22T04:19:18;9.70;99.90
40660;DHT22;26753;45.544;9.232;2023-11-22T04:21:44;9.60;99.90
40660;DHT22;26753;45.544;9.232;2023-11-22T04:31:30;10.50;99.90
40660;DHT22;26753;45.544;9.232;2023-11-22T04:33:56;7.00;99.90
40660;DHT22;26753;45.544;9.232;2023-11-22T04:41:15;8.80;99.90
40660;DHT22;26753;45.544;9.232;2023-11-22T04:43:42;9.50;99.90
40660;DHT22;26753;45.544;9.232;2023-11-22T04:48:36;8.30;99.90
40660;DHT22;26753;45.544;9.232;2023-11-22T04:53:30;9.40;99.90
40660;DHT22;26753;45.544;9.232;2023-11-22T04:55:57;10.90;99.90
40660;DHT22;26753;45.544;9.232;2023-11-22T04:58:24;9.60;99.90
40660;DHT22;26753;45.544;9.232;2023-11-22T05:00:50;6.40;99.90
40660;DHT22;26753;45.544;9.232;2023-11-22T05:05:41;11.00;99.90
40660;DHT22;26753;45.544;9.232;2023-11-22T05:08:07;8.20;99.90
40660;DHT22;26753;45.544;9.232;2023-11-22T05:10:33;10.00;99.90
40660;DHT22;26753;45.544;9.232;2023-11-22T05:12:58;9.80;99.90
40660;DHT22;26753;45.544;9.232;2023-11-22T05:42:15;9.30;99.90
40660;DHT22;26753;45.544;9.232;2023-11-22T05:49:33;9.70;99.90
40660;DHT22;26753;45.544;9.232;2023-11-22T05:51:59;9.50;99.90
40660;DHT22;26753;45.544;9.232;2023-11-22T05:56:51;9.10;99.90
40660;DHT22;26753;45.544;9.232;2023-11-22T05:59:17;7.80;99.90
40660;DHT22;26753;45.544;9.232;2023-11-22T06:01:45;7.50;99.90
40660;DHT22;26753;45.544;9.232;2023-11-22T06:04:11;7.60;99.90
40660;DHT22;26753;45.544;9.232;2023-11-22T06:11:31;8.00;99.90
40660;DHT22;26753;45.544;9.232;2023-11-22T06:13:56;9.00;99.90
40660;DHT22;26753;45.544;9.232;2023-11-22T06:18:48;11.00;99.90
40660;DHT22;26753;45.544;9.232;2023-11-22T06:23:40;10.00;99.90
40660;DHT22;26753;45.544;9.232;2023-11-22T06:43:11;10.80;99.90
40660;DHT22;26753;45.544;9.232;2023-11-22T07:12:32;9.60;99.90
40660;DHT22;26753;45.544;9.232;2023-11-22T07:14:57;9.90;99.90
40660;DHT22;26753;45.544;9.232;2023-11-22T07:22:19;7.60;99.90
40660;DHT22;26753;45.544;9.232;2023-11-22T07:34:36;8.70;99.90
40660;DHT22;26753;45.544;9.232;2023-11-22T07:37:02;10.70;99.90
40660;DHT22;26753;45.544;9.232;2023-11-22T07:39:28;8.60;99.90
40660;DHT22;26753;45.544;9.232;2023-11-22T07:41:54;9.70;99.90
40660;DHT22;26753;45.544;9.232;2023-11-22T07:49:13;10.30;99.90
40660;DHT22;26753;45.544;9.232;2023-11-22T07:54:10;12.90;99.90
40660;DHT22;26753;45.544;9.232;2023-11-22T07:59:09;8.40;99.90
40660;DHT22;26753;45.544;9.232;2023-11-22T08:01:36;12.90;99.90
40660;DHT22;26753;45.544;9.232;2023-11-22T08:06:28;10.60;99.90
40660;DHT22;26753;45.544;9.232;2023-11-22T08:08:54;11.50;99.90
40660;DHT22;26753;45.544;9.232;2023-11-22T08:11:19;12.70;99.90
40660;DHT22;26753;45.544;9.232;2023-11-22T08:18:40;10.10;99.90
40660;DHT22;26753;45.544;9.232;2023-11-22T08:21:08;14.50;99.90
40660;DHT22;26753;45.544;9.232;2023-11-22T08:23:34;10.50;99.90
40660;DHT22;26753;45.544;9.232;2023-11-22T08:25:59;11.80;99.90
40660;DHT22;26753;45.544;9.232;2023-11-22T08:28:25;11.00;99.90
40660;DHT22;26753;45.544;9.232;2023-11-22T08:33:18;12.10;99.90
40660;DHT22;26753;45.544;9.232;2023-11-22T08:35:44;11.20;99.90
40660;DHT22;26753;45.544;9.232;2023-11-22T08:38:18;11.60;99.90
40660;DHT22;26753;45.544;9.232;2023-11-22T08:40:44;13.60;99.90
40660;DHT22;26753;45.544;9.232;2023-11-22T08:43:20;12.40;99.90
40660;DHT22;26753;45.544;9.232;2023-11-22T08:45:49;12.90;99.90
40660;DHT22;26753;45.544;9.232;2023-11-22T08:48:15;13.40;99.90
40660;DHT22;26753;45.544;9.232;2023-11-22T08:50:41;12.70;99.90
40660;DHT22;26753;45.544;9.232;2023-11-22T08:53:07;11.90;99.90
40660;DHT22;26753;45.544;9.232;2023-11-22T08:55:33;14.70;99.90
40660;DHT22;26753;45.544;9.232;2023-11-22T08:57:59;13.50;99.90
40660;DHT22;26753;45.544;9.232;2023-11-22T09:00:25;12.30;99.90
40660;DHT22;26753;45.544;9.232;2023-11-22T09:02:54;12.80;99.90
40660;DHT22;26753;45.544;9.232;2023-11-22T09:07:47;14.90;99.90
40660;DHT22;26753;45.544;9.232;2023-11-22T09:10:13;15.50;99.90
40660;DHT22;26753;45.544;9.232;2023-11-22T09:12:41;12.30;99.90
40660;DHT22;26753;45.544;9.232;2023-11-22T09:15:13;13.80;99.90
40660;DHT22;26753;45.544;9.232;2023-11-22T09:17:42;11.70;99.90
40660;DHT22;26753;45.544;9.232;2023-11-22T09:20:27;12.90;99.90
40660;DHT22;26753;45.544;9.232;2023-11-22T09:23:03;11.90;99.90
40660;DHT22;26753;45.544;9.232;2023-11-22T09:25:31;15.10;99.90
40660;DHT22;26753;45.544;9.232;2023-11-22T09:28:00;14.20;99.90
40660;DHT22;26753;45.544;9.232;2023-11-22T09:30:30;15.00;99.90
40660;DHT22;26753;45.544;9.232;2023-11-22T09:33:00;14.20;99.90
40660;DHT22;26753;45.544;9.232;2023-11-22T09:35:27;14.40;99.90
40660;DHT22;26753;45.544;9.232;2023-11-22T09:37:55;14.50;99.90
40660;DHT22;26753;45.544;9.232;2023-11-22T09:40:22;15.80;99.90
40660;DHT22;26753;45.544;9.232;2023-11-22T09:42:48;14.10;99.90
40660;DHT22;26753;45.544;9.232;2023-11-22T09:45:20;14.90;99.90
40660;DHT22;26753;45.544;9.232;2023-11-22T09:47:47;15.90;99.90
40660;DHT22;26753;45.544;9.232;2023-11-22T09:53:33;15.90;99.90
40660;DHT22;26753;45.544;9.232;2023-11-22T09:56:01;15.00;99.90
40660;DHT22;26753;45.544;9.232;2023-11-22T09:58:34;15.60;99.90
40660;DHT22;26753;45.544;9.232;2023-11-22T10:01:00;15.30;99.90
40660;DHT22;26753;45.544;9.232;2023-11-22T10:03:27;15.70;99.90
40660;DHT22;26753;45.544;9.232;2023-11-22T10:05:57;16.00;99.90
40660;DHT22;26753;45.544;9.232;2023-11-22T10:08:28;16.00;99.90
40660;DHT22;26753;45.544;9.232;2023-11-22T10:10:55;15.40;99.90
40660;DHT22;26753;45.544;9.232;2023-11-22T10:13:24;16.20;99.90
40660;DHT22;26753;45.544;9.232;2023-11-22T10:15:51;16.40;99.90
40660;DHT22;26753;45.544;9.232;2023-11-22T10:18:18;16.50;99.90
40660;DHT22;26753;45.544;9.232;2023-11-22T10:20:46;16.70;99.90
40660;DHT22;26753;45.544;9.232;2023-11-22T10:23:14;16.90;99.90
40660;DHT22;26753;45.544;9.232;2023-11-22T10:25:49;17.10;99.90
40660;DHT22;26753;45.544;9.232;2023-11-22T10:28:17;17.30;99.90
40660;DHT22;26753;45.544;9.232;2023-11-22T10:30:45;17.30;99.90
40660;DHT22;26753;45.544;9.232;2023-11-22T10:33:11;17.30;99.90
40660;DHT22;26753;45.544;9.232;2023-11-22T10:35:43;18.20;99.90
40660;DHT22;26753;45.544;9.232;2023-11-22T10:38:09;17.50;99.90
40660;DHT22;26753;45.544;9.232;2023-11-22T10:40:39;17.60;99.90
40660;DHT22;26753;45.544;9.232;2023-11-22T10:43:15;17.70;99.90
40660;DHT22;26753;45.544;9.232;2023-11-22T10:45:43;17.60;99.90
40660;DHT22;26753;45.544;9.232;2023-11-22T10:48:14;17.70;99.90
40660;DHT22;26753;45.544;9.232;2023-11-22T10:50:42;17.70;99.90
40660;DHT22;26753;45.544;9.232;2023-11-22T10:53:11;17.70;99.90
40660;DHT22;26753;45.544;9.232;2023-11-22T10:55:45;17.80;99.90
40660;DHT22;26753;45.544;9.232;2023-11-22T10:58:11;18.00;99.90
40660;DHT22;26753;45.544;9.232;2023-11-22T11:00:40;18.00;99.90
40660;DHT22;26753;45.544;9.232;2023-11-22T11:03:18;18.20;99.90
40660;DHT22;26753;45.544;9.232;2023-11-22T11:06:08;18.20;99.90
40660;DHT22;26753;45.544;9.232;2023-11-22T11:08:39;18.30;99.90
40660;DHT22;26753;45.544;9.232;2023-11-22T11:11:05;18.50;99.90
40660;DHT22;26753;45.544;9.232;2023-11-22T11:13:32;18.50;99.90
40660;DHT22;26753;45.544;9.232;2023-11-22T11:15:58;18.60;99.90
40660;DHT22;26753;45.544;9.232;2023-11-22T11:18:25;18.70;99.90
40660;DHT22;26753;45.544;9.232;2023-11-22T11:20:57;18.70;99.70
40660;DHT22;26753;45.544;9.232;2023-11-22T11:23:26;18.70;98.50
40660;DHT22;26753;45.544;9.232;2023-11-22T11:25:56;18.70;98.40
40660;DHT22;26753;45.544;9.232;2023-11-22T11:28:25;18.90;97.70
40660;DHT22;26753;45.544;9.232;2023-11-22T11:30:55;19.00;97.60
40660;DHT22;26753;45.544;9.232;2023-11-22T11:33:32;19.20;97.30
40660;DHT22;26753;45.544;9.232;2023-11-22T11:35:58;19.40;96.20
40660;DHT22;26753;45.544;9.232;2023-11-22T11:38:34;19.80;95.90
40660;DHT22;26753;45.544;9.232;2023-11-22T11:41:10;20.00;94.90
40660;DHT22;26753;45.544;9.232;2023-11-22T11:43:43;19.90;94.10
40660;DHT22;26753;45.544;9.232;2023-11-22T11:46:12;20.00;94.60
40660;DHT22;26753;45.544;9.232;2023-11-22T11:48:37;20.00;93.80
40660;DHT22;26753;45.544;9.232;2023-11-22T11:51:04;19.80;93.90
40660;DHT22;26753;45.544;9.232;2023-11-22T11:53:32;19.90;93.90
40660;DHT22;26753;45.544;9.232;2023-11-22T11:55:58;19.90;93.00
40660;DHT22;26753;45.544;9.232;2023-11-22T11:58:24;20.00;92.50
40660;DHT22;26753;45.544;9.232;2023-11-22T12:00:55;20.00;92.10
40660;DHT22;26753;45.544;9.232;2023-11-22T12:03:23;20.20;91.70
40660;DHT22;26753;45.544;9.232;2023-11-22T12:05:49;20.60;91.10
40660;DHT22;26753;45.544;9.232;2023-11-22T12:08:15;21.80;90.40
40660;DHT22;26753;45.544;9.232;2023-11-22T12:10:43;26.60;82.50
40660;DHT22;26753;45.544;9.232;2023-11-22T12:13:09;25.20;77.90
40660;DHT22;26753;45.544;9.232;2023-11-22T12:15:35;23.20;79.90
40660;DHT22;26753;45.544;9.232;2023-11-22T12:18:01;22.30;82.20
40660;DHT22;26753;45.544;9.232;2023-11-22T12:20:27;21.70;83.80
40660;DHT22;26753;45.544;9.232;2023-11-22T12:22:59;22.10;83.50
40660;DHT22;26753;45.544;9.232;2023-11-22T12:25:28;26.80;78.00
40660;DHT22;26753;45.544;9.232;2023-11-22T12:27:57;32.50;68.00
40660;DHT22;26753;45.544;9.232;2023-11-22T12:30:31;35.90;57.80
40660;DHT22;26753;45.544;9.232;2023-11-22T12:33:05;38.30;52.30
40660;DHT22;26753;45.544;9.232;2023-11-22T12:35:31;40.00;48.20
40660;DHT22;26753;45.544;9.232;2023-11-22T12:38:00;40.40;46.80
40660;DHT22;26753;45.544;9.232;2023-11-22T12:40:30;41.00;45.30
40660;DHT22;26753;45.544;9.232;2023-11-22T12:42:57;41.70;44.40
40660;DHT22;26753;45.544;9.232;2023-11-22T12:45:24;42.30;43.00
40660;DHT22;26753;45.544;9.232;2023-11-22T12:47:51;42.70;42.30
40660;DHT22;26753;45.544;9.232;2023-11-22T12:50:37;43.10;41.50
40660;DHT22;26753;45.544;9.232;2023-11-22T12:53:12;43.60;40.50
40660;DHT22;26753;45.544;9.232;2023-11-22T12:55:44;44.30;39.80
40660;DHT22;26753;45.544;9.232;2023-11-22T12:58:10;44.80;40.30
40660;DHT22;26753;45.544;9.232;2023-11-22T13:00:38;45.10;39.10
40660;DHT22;26753;45.544;9.232;2023-11-22T13:03:08;45.40;38.20
40660;DHT22;26753;45.544;9.232;2023-11-22T13:05:36;45.00;37.90
40660;DHT22;26753;45.544;9.232;2023-11-22T13:08:02;45.10;37.40
40660;DHT22;26753;45.544;9.232;2023-11-22T13:10:31;45.00;37.10
40660;DHT22;26753;45.544;9.232;2023-11-22T13:12:58;45.00;37.20
40660;DHT22;26753;45.544;9.232;2023-11-22T13:15:24;45.60;36.60
40660;DHT22;26753;45.544;9.232;2023-11-22T13:17:55;45.70;36.10
40660;DHT22;26753;45.544;9.232;2023-11-22T13:20:27;45.80;35.60
40660;DHT22;26753;45.544;9.232;2023-11-22T13:22:56;45.60;35.10
40660;DHT22;26753;45.544;9.232;2023-11-22T13:25:23;46.20;35.60
40660;DHT22;26753;45.544;9.232;2023-11-22T13:27:50;46.00;35.50
40660;DHT22;26753;45.544;9.232;2023-11-22T13:30:16;46.80;35.00
40660;DHT22;26753;45.544;9.232;2023-11-22T13:32:57;46.30;35.10
40660;DHT22;26753;45.544;9.232;2023-11-22T13:35:27;46.40;34.30
40660;DHT22;26753;45.544;9.232;2023-11-22T13:37:57;46.10;34.20
40660;DHT22;26753;45.544;9.232;2023-11-22T13:40:24;45.20;34.00
40660;DHT22;26753;45.544;9.232;2023-11-22T13:42:53;44.40;34.40
40660;DHT22;26753;45.544;9.232;2023-11-22T13:45:19;45.30;34.40
40660;DHT22;26753;45.544;9.232;2023-11-22T13:47:50;45.60;34.20
40660;DHT22;26753;45.544;9.232;2023-11-22T13:50:18;46.00;33.90
40660;DHT22;26753;45.544;9.232;2023-11-22T13:52:50;45.80;33.80
40660;DHT22;26753;45.544;9.232;2023-11-22T13:55:17;45.30;34.00
40660;DHT22;26753;45.544;9.232;2023-11-22T13:57:48;45.80;33.70
40660;DHT22;26753;45.544;9.232;2023-11-22T14:00:14;45.90;33.20
40660;DHT22;26753;45.544;9.232;2023-11-22T14:02:48;46.20;33.70
40660;DHT22;26753;45.544;9.232;2023-11-22T14:05:14;46.50;33.10
40660;DHT22;26753;45.544;9.232;2023-11-22T14:07:41;46.50;32.80
40660;DHT22;26753;45.544;9.232;2023-11-22T14:10:08;46.30;32.80
40660;DHT22;26753;45.544;9.232;2023-11-22T14:12:34;45.80;32.60
40660;DHT22;26753;45.544;9.232;2023-11-22T14:15:01;45.70;32.80
40660;DHT22;26753;45.544;9.232;2023-11-22T14:17:29;45.80;32.90
40660;DHT22;26753;45.544;9.232;2023-11-22T14:19:55;45.10;32.60
40660;DHT22;26753;45.544;9.232;2023-11-22T14:22:22;45.50;33.00
40660;DHT22;26753;45.544;9.232;2023-11-22T14:24:49;45.70;32.70
40660;DHT22;26753;45.544;9.232;2023-11-22T14:27:16;45.00;32.80
40660;DHT22;26753;45.544;9.232;2023-11-22T14:29:42;45.30;32.90
40660;DHT22;26753;45.544;9.232;2023-11-22T14:32:11;44.80;32.60
40660;DHT22;26753;45.544;9.232;2023-11-22T14:34:40;44.50;32.70
40660;DHT22;26753;45.544;9.232;2023-11-22T14:37:09;44.20;32.80
40660;DHT22;26753;45.544;9.232;2023-11-22T14:39:35;43.70;33.10
40660;DHT22;26753;45.544;9.232;2023-11-22T14:42:01;43.90;33.20
40660;DHT22;26753;45.544;9.232;2023-11-22T14:44:27;43.30;32.60
40660;DHT22;26753;45.544;9.232;2023-11-22T14:46:52;42.80;32.60
40660;DHT22;26753;45.544;9.232;2023-11-22T14:49:19;42.20;32.70
40660;DHT22;26753;45.544;9.232;2023-11-22T14:51:46;41.90;33.10
40660;DHT22;26753;45.544;9.232;2023-11-22T14:54:12;41.70;33.30
40660;DHT22;26753;45.544;9.232;2023-11-22T14:56:38;41.20;33.10
40660;DHT22;26753;45.544;9.232;2023-11-22T14:59:05;40.80;33.30
40660;DHT22;26753;45.544;9.232;2023-11-22T15:01:31;38.30;33.20
40660;DHT22;26753;45.544;9.232;2023-11-22T15:03:57;34.00;34.70
40660;DHT22;26753;45.544;9.232;2023-11-22T15:06:23;31.00;36.70
40660;DHT22;26753;45.544;9.232;2023-11-22T15:08:49;28.60;38.70
40660;DHT22;26753;45.544;9.232;2023-11-22T15:11:16;26.80;40.40
40660;DHT22;26753;45.544;9.232;2023-11-22T15:13:46;25.60;41.90
40660;DHT22;26753;45.544;9.232;2023-11-22T15:16:12;24.40;43.10
40660;DHT22;26753;45.544;9.232;2023-11-22T15:18:40;23.80;44.40
40660;DHT22;26753;45.544;9.232;2023-11-22T15:21:06;23.10;45.60
40660;DHT22;26753;45.544;9.232;2023-11-22T15:23:31;22.60;46.40
40660;DHT22;26753;45.544;9.232;2023-11-22T15:25:57;21.90;47.50
40660;DHT22;26753;45.544;9.232;2023-11-22T15:28:24;21.70;48.40
40660;DHT22;26753;45.544;9.232;2023-11-22T15:30:51;21.40;49.30
40660;DHT22;26753;45.544;9.232;2023-11-22T15:33:25;21.30;49.90
40660;DHT22;26753;45.544;9.232;2023-11-22T15:35:51;21.10;50.60
40660;DHT22;26753;45.544;9.232;2023-11-22T15:38:17;21.00;51.10
40660;DHT22;26753;45.544;9.232;2023-11-22T15:40:43;20.60;51.80
40660;DHT22;26753;45.544;9.232;2023-11-22T15:43:09;20.30;52.60
40660;DHT22;26753;45.544;9.232;2023-11-22T15:45:34;20.20;53.30
40660;DHT22;26753;45.544;9.232;2023-11-22T15:48:01;19.90;53.70
40660;DHT22;26753;45.544;9.232;2023-11-22T15:50:29;20.00;54.20
40660;DHT22;26753;45.544;9.232;2023-11-22T15:52:55;20.00;54.50
40660;DHT22;26753;45.544;9.232;2023-11-22T15:55:20;19.90;54.70
40660;DHT22;26753;45.544;9.232;2023-11-22T15:57:46;19.60;55.10
40660;DHT22;26753;45.544;9.232;2023-11-22T16:00:12;19.40;56.10
40660;DHT22;26753;45.544;9.232;2023-11-22T16:02:40;19.40;56.60
40660;DHT22;26753;45.544;9.232;2023-11-22T16:05:06;19.40;57.00
40660;DHT22;26753;45.544;9.232;2023-11-22T16:07:33;19.30;58.00
40660;DHT22;26753;45.544;9.232;2023-11-22T16:09:59;19.20;58.10
40660;DHT22;26753;45.544;9.232;2023-11-22T16:12:25;19.20;58.30
40660;DHT22;26753;45.544;9.232;2023-11-22T16:14:52;19.30;58.30
40660;DHT22;26753;45.544;9.232;2023-11-22T16:17:18;19.20;58.10
40660;DHT22;26753;45.544;9.232;2023-11-22T16:19:47;19.10;58.30
40660;DHT22;26753;45.544;9.232;2023-11-22T16:22:12;19.10;58.50
40660;DHT22;26753;45.544;9.232;2023-11-22T16:24:38;18.90;58.90
40660;DHT22;26753;45.544;9.232;2023-11-22T16:27:04;18.70;59.30
40660;DHT22;26753;45.544;9.232;2023-11-22T16:29:31;18.50;59.70
40660;DHT22;26753;45.544;9.232;2023-11-22T16:31:57;18.40;60.00
40660;DHT22;26753;45.544;9.232;2023-11-22T16:34:25;18.40;60.20
40660;DHT22;26753;45.544;9.232;2023-11-22T16:36:50;18.40;60.40
40660;DHT22;26753;45.544;9.232;2023-11-22T16:39:17;18.40;60.50
40660;DHT22;26753;45.544;9.232;2023-11-22T16:41:46;18.30;60.70
40660;DHT22;26753;45.544;9.232;2023-11-22T16:44:13;18.20;61.10
40660;DHT22;26753;45.544;9.232;2023-11-22T16:46:40;18.10;61.50
40660;DHT22;26753;45.544;9.232;2023-11-22T16:49:05;18.00;61.90
40660;DHT22;26753;45.544;9.232;2023-11-22T16:51:33;17.80;62.10
40660;DHT22;26753;45.544;9.232;2023-11-22T16:53:59;17.70;62.50
40660;DHT22;26753;45.544;9.232;2023-11-22T16:56:25;17.70;62.90
40660;DHT22;26753;45.544;9.232;2023-11-22T16:58:50;17.70;63.20
40660;DHT22;26753;45.544;9.232;2023-11-22T17:01:16;17.50;63.60
40660;DHT22;26753;45.544;9.232;2023-11-22T17:03:41;17.40;63.90
40660;DHT22;26753;45.544;9.232;2023-11-22T17:06:10;17.20;64.30
40660;DHT22;26753;45.544;9.232;2023-11-22T17:08:36;17.30;64.90
40660;DHT22;26753;45.544;9.232;2023-11-22T17:11:01;17.30;65.20
40660;DHT22;26753;45.544;9.232;2023-11-22T17:13:27;17.10;65.30
40660;DHT22;26753;45.544;9.232;2023-11-22T17:15:53;17.10;65.70
40660;DHT22;26753;45.544;9.232;2023-11-22T17:18:21;17.10;66.70
40660;DHT22;26753;45.544;9.232;2023-11-22T17:20:46;17.10;66.40
40660;DHT22;26753;45.544;9.232;2023-11-22T17:23:12;17.00;66.80
40660;DHT22;26753;45.544;9.232;2023-11-22T17:25:37;16.90;66.90
40660;DHT22;26753;45.544;9.232;2023-11-22T17:28:03;16.90;67.20
40660;DHT22;26753;45.544;9.232;2023-11-22T17:30:29;16.90;67.50
40660;DHT22;26753;45.544;9.232;2023-11-22T17:32:54;16.90;67.90
40660;DHT22;26753;45.544;9.232;2023-11-22T17:35:20;16.80;68.50
40660;DHT22;26753;45.544;9.232;2023-11-22T17:37:47;16.70;69.00
40660;DHT22;26753;45.544;9.232;2023-11-22T17:40:14;16.50;69.70
40660;DHT22;26753;45.544;9.232;2023-11-22T17:42:41;16.40;70.20
40660;DHT22;26753;45.544;9.232;2023-11-22T17:45:07;16.20;70.70
40660;DHT22;26753;45.544;9.232;2023-11-22T17:47:35;16.00;71.50
40660;DHT22;26753;45.544;9.232;2023-11-22T17:50:05;15.90;72.00
40660;DHT22;26753;45.544;9.232;2023-11-22T17:52:31;15.70;72.70
40660;DHT22;26753;45.544;9.232;2023-11-22T17:54:57;15.60;73.30
40660;DHT22;26753;45.544;9.232;2023-11-22T17:57:23;15.60;73.80
40660;DHT22;26753;45.544;9.232;2023-11-22T17:59:49;15.60;74.00
40660;DHT22;26753;45.544;9.232;2023-11-22T18:02:15;15.60;74.60
40660;DHT22;26753;45.544;9.232;2023-11-22T18:04:41;15.50;75.00
40660;DHT22;26753;45.544;9.232;2023-11-22T18:07:06;15.50;75.50
40660;DHT22;26753;45.544;9.232;2023-11-22T18:09:32;16.00;76.50
40660;DHT22;26753;45.544;9.232;2023-11-22T18:12:01;15.50;75.90
40660;DHT22;26753;45.544;9.232;2023-11-22T18:14:33;15.50;75.90
40660;DHT22;26753;45.544;9.232;2023-11-22T18:16:58;15.60;76.30
40660;DHT22;26753;45.544;9.232;2023-11-22T18:19:25;15.50;76.70
40660;DHT22;26753;45.544;9.232;2023-11-22T18:21:50;15.50;77.20
40660;DHT22;26753;45.544;9.232;2023-11-22T18:24:16;15.50;77.30
40660;DHT22;26753;45.544;9.232;2023-11-22T18:26:46;15.40;77.80
40660;DHT22;26753;45.544;9.232;2023-11-22T18:29:12;15.40;78.30
40660;DHT22;26753;45.544;9.232;2023-11-22T18:31:41;15.30;79.00
40660;DHT22;26753;45.544;9.232;2023-11-22T18:34:07;15.10;80.00
40660;DHT22;26753;45.544;9.232;2023-11-22T18:36:32;15.20;80.10
40660;DHT22;26753;45.544;9.232;2023-11-22T18:38:59;15.10;80.70
40660;DHT22;26753;45.544;9.232;2023-11-22T18:41:24;15.00;81.20
40660;DHT22;26753;45.544;9.232;2023-11-22T18:43:51;15.00;81.80
40660;DHT22;26753;45.544;9.232;2023-11-22T18:46:16;14.90;82.70
40660;DHT22;26753;45.544;9.232;2023-11-22T18:48:42;14.70;83.80
40660;DHT22;26753;45.544;9.232;2023-11-22T18:51:07;16.00;84.50
40660;DHT22;26753;45.544;9.232;2023-11-22T18:53:33;14.60;84.40
40660;DHT22;26753;45.544;9.232;2023-11-22T18:55:59;14.60;85.60
40660;DHT22;26753;45.544;9.232;2023-11-22T18:58:24;14.40;85.70
40660;DHT22;26753;45.544;9.232;2023-11-22T19:00:51;14.30;86.60
40660;DHT22;26753;45.544;9.232;2023-11-22T19:03:16;14.30;87.90
40660;DHT22;26753;45.544;9.232;2023-11-22T19:05:42;15.30;89.80
40660;DHT22;26753;45.544;9.232;2023-11-22T19:08:08;14.70;90.20
40660;DHT22;26753;45.544;9.232;2023-11-22T19:10:34;14.80;90.60
40660;DHT22;26753;45.544;9.232;2023-11-22T19:13:00;12.50;90.80
40660;DHT22;26753;45.544;9.232;2023-11-22T19:15:25;15.60;92.20
40660;DHT22;26753;45.544;9.232;2023-11-22T19:17:51;15.40;92.60
40660;DHT22;26753;45.544;9.232;2023-11-22T19:20:17;14.20;93.20
40660;DHT22;26753;45.544;9.232;2023-11-22T19:22:45;12.60;93.30
40660;DHT22;26753;45.544;9.232;2023-11-22T19:25:11;14.20;93.80
40660;DHT22;26753;45.544;9.232;2023-11-22T19:27:38;14.40;94.60
40660;DHT22;26753;45.544;9.232;2023-11-22T19:30:05;14.60;95.40
40660;DHT22;26753;45.544;9.232;2023-11-22T19:32:31;11.90;96.50
40660;DHT22;26753;45.544;9.232;2023-11-22T19:34:57;13.80;97.30
40660;DHT22;26753;45.544;9.232;2023-11-22T19:37:23;15.20;99.00
40660;DHT22;26753;45.544;9.232;2023-11-22T19:39:53;14.10;99.00
40660;DHT22;26753;45.544;9.232;2023-11-22T19:47:12;10.90;99.90
40660;DHT22;26753;45.544;9.232;2023-11-22T19:49:38;13.20;99.90
40660;DHT22;26753;45.544;9.232;2023-11-22T19:52:05;11.80;99.60
40660;DHT22;26753;45.544;9.232;2023-11-22T19:54:31;11.60;99.50
40660;DHT22;26753;45.544;9.232;2023-11-22T19:56:57;12.80;99.50
40660;DHT22;26753;45.544;9.232;2023-11-22T19:59:23;13.90;99.90
40660;DHT22;26753;45.544;9.232;2023-11-22T20:04:15;14.00;99.90
40660;DHT22;26753;45.544;9.232;2023-11-22T20:06:45;14.90;99.90
40660;DHT22;26753;45.544;9.232;2023-11-22T20:11:39;12.50;99.90
40660;DHT22;26753;45.544;9.232;2023-11-22T20:14:05;12.40;99.90